sensor_id;sensor_type;location;lat;lon;timestamp;P1;durP1;ratioP1;P2;durP2;ratioP2
61344;SDS011;47216;42.656;23.232;2023-09-12T00:00:57;4.43;;;2.40;;
61344;SDS011;47216;42.656;23.232;2023-09-12T00:03:24;5.73;;;1.97;;
61344;SDS011;47216;42.656;23.232;2023-09-12T00:05:51;3.70;;;2.13;;
61344;SDS011;47216;42.656;23.232;2023-09-12T00:08:19;5.00;;;2.10;;
61344;SDS011;47216;42.656;23.232;2023-09-12T00:10:47;4.00;;;2.30;;
61344;SDS011;47216;42.656;23.232;2023-09-12T00:13:23;3.93;;;1.80;;
61344;SDS011;47216;42.656;23.232;2023-09-12T00:15:50;4.57;;;2.20;;
61344;SDS011;47216;42.656;23.232;2023-09-12T00:18:17;4.87;;;3.20;;
61344;SDS011;47216;42.656;23.232;2023-09-12T00:20:44;2.67;;;2.10;;
61344;SDS011;47216;42.656;23.232;2023-09-12T00:23:10;3.60;;;2.20;;
61344;SDS011;47216;42.656;23.232;2023-09-12T00:25:38;5.27;;;1.87;;
61344;SDS011;47216;42.656;23.232;2023-09-12T00:28:05;3.03;;;1.90;;
61344;SDS011;47216;42.656;23.232;2023-09-12T00:30:32;3.13;;;1.90;;
61344;SDS011;47216;42.656;23.232;2023-09-12T00:32:58;2.50;;;1.70;;
61344;SDS011;47216;42.656;23.232;2023-09-12T00:35:25;3.73;;;2.30;;
61344;SDS011;47216;42.656;23.232;2023-09-12T00:37:52;3.47;;;1.80;;
61344;SDS011;47216;42.656;23.232;2023-09-12T00:40:19;3.70;;;2.50;;
61344;SDS011;47216;42.656;23.232;2023-09-12T00:42:47;3.33;;;2.03;;
61344;SDS011;47216;42.656;23.232;2023-09-12T00:45:14;3.70;;;2.20;;
61344;SDS011;47216;42.656;23.232;2023-09-12T00:47:40;3.43;;;1.90;;
61344;SDS011;47216;42.656;23.232;2023-09-12T00:50:07;5.33;;;2.07;;
61344;SDS011;47216;42.656;23.232;2023-09-12T00:52:35;7.03;;;2.17;;
61344;SDS011;47216;42.656;23.232;2023-09-12T00:55:04;4.50;;;2.00;;
61344;SDS011;47216;42.656;23.232;2023-09-12T00:57:32;3.97;;;1.93;;
61344;SDS011;47216;42.656;23.232;2023-09-12T01:00:03;2.47;;;1.90;;
61344;SDS011;47216;42.656;23.232;2023-09-12T01:02:36;1.93;;;1.73;;
61344;SDS011;47216;42.656;23.232;2023-09-12T01:05:04;2.47;;;1.83;;
61344;SDS011;47216;42.656;23.232;2023-09-12T01:07:32;3.70;;;1.93;;
61344;SDS011;47216;42.656;23.232;2023-09-12T01:09:59;3.10;;;1.90;;
61344;SDS011;47216;42.656;23.232;2023-09-12T01:12:27;3.77;;;1.90;;
61344;SDS011;47216;42.656;23.232;2023-09-12T01:14:53;6.73;;;1.90;;
61344;SDS011;47216;42.656;23.232;2023-09-12T01:17:22;2.23;;;1.70;;
61344;SDS011;47216;42.656;23.232;2023-09-12T01:19:49;3.47;;;1.93;;
61344;SDS011;47216;42.656;23.232;2023-09-12T01:25:24;2.03;;;1.63;;
61344;SDS011;47216;42.656;23.232;2023-09-12T01:28:18;4.70;;;1.80;;
61344;SDS011;47216;42.656;23.232;2023-09-12T01:30:47;8.07;;;2.37;;
61344;SDS011;47216;42.656;23.232;2023-09-12T01:33:16;4.17;;;1.93;;
61344;SDS011;47216;42.656;23.232;2023-09-12T01:35:43;2.47;;;2.03;;
61344;SDS011;47216;42.656;23.232;2023-09-12T01:38:11;5.57;;;1.90;;
61344;SDS011;47216;42.656;23.232;2023-09-12T01:40:39;3.17;;;2.00;;
61344;SDS011;47216;42.656;23.232;2023-09-12T01:43:10;3.27;;;2.20;;
61344;SDS011;47216;42.656;23.232;2023-09-12T01:45:39;3.47;;;2.07;;
61344;SDS011;47216;42.656;23.232;2023-09-12T01:48:06;3.90;;;2.20;;
61344;SDS011;47216;42.656;23.232;2023-09-12T01:50:34;2.77;;;2.23;;
61344;SDS011;47216;42.656;23.232;2023-09-12T01:53:03;3.63;;;2.10;;
61344;SDS011;47216;42.656;23.232;2023-09-12T01:55:30;4.47;;;2.10;;
61344;SDS011;47216;42.656;23.232;2023-09-12T01:57:58;4.20;;;2.10;;
61344;SDS011;47216;42.656;23.232;2023-09-12T02:00:24;4.30;;;1.90;;
61344;SDS011;47216;42.656;23.232;2023-09-12T02:02:52;3.37;;;1.87;;
61344;SDS011;47216;42.656;23.232;2023-09-12T02:05:20;2.23;;;2.03;;
61344;SDS011;47216;42.656;23.232;2023-09-12T02:07:48;3.53;;;1.70;;
61344;SDS011;47216;42.656;23.232;2023-09-12T02:10:15;3.63;;;2.07;;
61344;SDS011;47216;42.656;23.232;2023-09-12T02:12:42;5.10;;;2.00;;
61344;SDS011;47216;42.656;23.232;2023-09-12T02:15:09;2.90;;;2.20;;
61344;SDS011;47216;42.656;23.232;2023-09-12T02:17:37;4.83;;;2.20;;
61344;SDS011;47216;42.656;23.232;2023-09-12T02:20:07;3.20;;;2.00;;
61344;SDS011;47216;42.656;23.232;2023-09-12T02:22:34;3.33;;;2.17;;
61344;SDS011;47216;42.656;23.232;2023-09-12T02:25:01;3.10;;;2.17;;
61344;SDS011;47216;42.656;23.232;2023-09-12T02:27:29;1.93;;;1.73;;
61344;SDS011;47216;42.656;23.232;2023-09-12T02:29:56;6.23;;;2.10;;
61344;SDS011;47216;42.656;23.232;2023-09-12T02:32:23;2.50;;;2.00;;
61344;SDS011;47216;42.656;23.232;2023-09-12T02:34:50;4.00;;;2.50;;
61344;SDS011;47216;42.656;23.232;2023-09-12T02:37:19;5.57;;;2.10;;
61344;SDS011;47216;42.656;23.232;2023-09-12T02:39:46;5.37;;;2.30;;
61344;SDS011;47216;42.656;23.232;2023-09-12T02:42:13;3.97;;;2.10;;
61344;SDS011;47216;42.656;23.232;2023-09-12T02:44:39;3.60;;;1.90;;
61344;SDS011;47216;42.656;23.232;2023-09-12T02:47:06;6.77;;;1.93;;
61344;SDS011;47216;42.656;23.232;2023-09-12T02:49:33;4.23;;;1.90;;
61344;SDS011;47216;42.656;23.232;2023-09-12T02:52:00;6.50;;;2.67;;
61344;SDS011;47216;42.656;23.232;2023-09-12T02:54:28;3.40;;;2.10;;
61344;SDS011;47216;42.656;23.232;2023-09-12T02:56:55;3.77;;;2.20;;
61344;SDS011;47216;42.656;23.232;2023-09-12T02:59:21;2.80;;;2.07;;
61344;SDS011;47216;42.656;23.232;2023-09-12T03:01:48;3.93;;;2.20;;
61344;SDS011;47216;42.656;23.232;2023-09-12T03:04:15;3.20;;;1.83;;
61344;SDS011;47216;42.656;23.232;2023-09-12T03:06:41;2.80;;;2.20;;
61344;SDS011;47216;42.656;23.232;2023-09-12T03:09:08;4.47;;;2.10;;
61344;SDS011;47216;42.656;23.232;2023-09-12T03:11:37;2.37;;;1.90;;
61344;SDS011;47216;42.656;23.232;2023-09-12T03:14:04;3.17;;;2.13;;
61344;SDS011;47216;42.656;23.232;2023-09-12T03:16:31;4.23;;;2.40;;
61344;SDS011;47216;42.656;23.232;2023-09-12T03:18:58;4.00;;;2.30;;
61344;SDS011;47216;42.656;23.232;2023-09-12T03:21:26;3.77;;;2.00;;
61344;SDS011;47216;42.656;23.232;2023-09-12T03:23:53;3.23;;;2.00;;
61344;SDS011;47216;42.656;23.232;2023-09-12T03:26:19;6.17;;;2.47;;
61344;SDS011;47216;42.656;23.232;2023-09-12T03:28:48;4.50;;;2.10;;
61344;SDS011;47216;42.656;23.232;2023-09-12T03:31:15;3.20;;;2.10;;
61344;SDS011;47216;42.656;23.232;2023-09-12T03:33:42;5.87;;;2.20;;
61344;SDS011;47216;42.656;23.232;2023-09-12T03:36:14;2.60;;;1.97;;
61344;SDS011;47216;42.656;23.232;2023-09-12T03:38:42;3.13;;;2.23;;
61344;SDS011;47216;42.656;23.232;2023-09-12T03:41:08;4.90;;;2.27;;
61344;SDS011;47216;42.656;23.232;2023-09-12T03:43:36;3.80;;;2.10;;
61344;SDS011;47216;42.656;23.232;2023-09-12T03:46:04;7.03;;;2.23;;
61344;SDS011;47216;42.656;23.232;2023-09-12T03:48:31;6.33;;;2.47;;
61344;SDS011;47216;42.656;23.232;2023-09-12T03:50:57;3.90;;;2.40;;
61344;SDS011;47216;42.656;23.232;2023-09-12T03:53:24;4.33;;;2.00;;
61344;SDS011;47216;42.656;23.232;2023-09-12T03:55:51;3.93;;;2.40;;
61344;SDS011;47216;42.656;23.232;2023-09-12T03:58:18;3.40;;;2.27;;
61344;SDS011;47216;42.656;23.232;2023-09-12T04:00:45;4.97;;;1.83;;
61344;SDS011;47216;42.656;23.232;2023-09-12T04:03:13;5.07;;;2.53;;
61344;SDS011;47216;42.656;23.232;2023-09-12T04:05:41;5.50;;;2.77;;
61344;SDS011;47216;42.656;23.232;2023-09-12T04:08:08;6.73;;;2.53;;
61344;SDS011;47216;42.656;23.232;2023-09-12T04:10:34;4.30;;;2.67;;
61344;SDS011;47216;42.656;23.232;2023-09-12T04:13:01;3.87;;;2.60;;
61344;SDS011;47216;42.656;23.232;2023-09-12T04:15:28;7.77;;;3.53;;
61344;SDS011;47216;42.656;23.232;2023-09-12T04:17:54;9.63;;;2.67;;
61344;SDS011;47216;42.656;23.232;2023-09-12T04:20:23;3.63;;;2.30;;
61344;SDS011;47216;42.656;23.232;2023-09-12T04:22:50;3.60;;;2.30;;
61344;SDS011;47216;42.656;23.232;2023-09-12T04:25:16;3.57;;;2.27;;
61344;SDS011;47216;42.656;23.232;2023-09-12T04:27:45;3.77;;;2.57;;
61344;SDS011;47216;42.656;23.232;2023-09-12T04:30:12;3.83;;;2.20;;
61344;SDS011;47216;42.656;23.232;2023-09-12T04:32:39;5.07;;;2.30;;
61344;SDS011;47216;42.656;23.232;2023-09-12T04:35:06;5.83;;;2.10;;
61344;SDS011;47216;42.656;23.232;2023-09-12T04:37:34;6.73;;;2.30;;
61344;SDS011;47216;42.656;23.232;2023-09-12T04:40:02;3.00;;;2.07;;
61344;SDS011;47216;42.656;23.232;2023-09-12T04:42:31;4.63;;;2.50;;
61344;SDS011;47216;42.656;23.232;2023-09-12T04:44:57;8.67;;;2.57;;
61344;SDS011;47216;42.656;23.232;2023-09-12T04:47:25;3.73;;;2.13;;
61344;SDS011;47216;42.656;23.232;2023-09-12T04:49:52;4.83;;;2.90;;
61344;SDS011;47216;42.656;23.232;2023-09-12T04:52:19;7.07;;;2.57;;
61344;SDS011;47216;42.656;23.232;2023-09-12T04:54:47;6.70;;;2.80;;
61344;SDS011;47216;42.656;23.232;2023-09-12T04:57:14;3.77;;;2.50;;
61344;SDS011;47216;42.656;23.232;2023-09-12T04:59:41;3.53;;;2.30;;
61344;SDS011;47216;42.656;23.232;2023-09-12T05:02:07;3.13;;;2.40;;
61344;SDS011;47216;42.656;23.232;2023-09-12T05:04:34;8.20;;;3.10;;
61344;SDS011;47216;42.656;23.232;2023-09-12T05:07:01;9.33;;;3.00;;
61344;SDS011;47216;42.656;23.232;2023-09-12T05:09:28;21.80;;;3.53;;
61344;SDS011;47216;42.656;23.232;2023-09-12T05:11:56;5.23;;;2.53;;
61344;SDS011;47216;42.656;23.232;2023-09-12T05:14:23;10.13;;;2.60;;
61344;SDS011;47216;42.656;23.232;2023-09-12T05:16:50;3.57;;;2.23;;
61344;SDS011;47216;42.656;23.232;2023-09-12T05:19:16;8.20;;;2.67;;
61344;SDS011;47216;42.656;23.232;2023-09-12T05:21:43;8.40;;;2.53;;
61344;SDS011;47216;42.656;23.232;2023-09-12T05:24:10;10.70;;;2.37;;
61344;SDS011;47216;42.656;23.232;2023-09-12T05:26:37;10.87;;;2.40;;
61344;SDS011;47216;42.656;23.232;2023-09-12T05:29:05;9.70;;;2.77;;
61344;SDS011;47216;42.656;23.232;2023-09-12T05:31:32;5.50;;;2.30;;
61344;SDS011;47216;42.656;23.232;2023-09-12T05:33:58;7.70;;;2.73;;
61344;SDS011;47216;42.656;23.232;2023-09-12T05:36:25;9.40;;;2.67;;
61344;SDS011;47216;42.656;23.232;2023-09-12T05:38:52;10.63;;;2.93;;
61344;SDS011;47216;42.656;23.232;2023-09-12T05:41:19;6.93;;;3.10;;
61344;SDS011;47216;42.656;23.232;2023-09-12T05:43:45;7.37;;;2.80;;
61344;SDS011;47216;42.656;23.232;2023-09-12T05:46:13;12.63;;;3.00;;
61344;SDS011;47216;42.656;23.232;2023-09-12T05:48:40;4.87;;;2.70;;
61344;SDS011;47216;42.656;23.232;2023-09-12T05:51:07;6.07;;;2.90;;
61344;SDS011;47216;42.656;23.232;2023-09-12T05:53:34;12.03;;;3.50;;
61344;SDS011;47216;42.656;23.232;2023-09-12T05:56:00;11.93;;;3.80;;
61344;SDS011;47216;42.656;23.232;2023-09-12T05:58:27;11.73;;;3.57;;
61344;SDS011;47216;42.656;23.232;2023-09-12T06:00:55;13.00;;;4.00;;
61344;SDS011;47216;42.656;23.232;2023-09-12T06:03:23;6.10;;;3.60;;
61344;SDS011;47216;42.656;23.232;2023-09-12T06:05:49;11.53;;;4.00;;
61344;SDS011;47216;42.656;23.232;2023-09-12T06:08:16;9.30;;;4.20;;
61344;SDS011;47216;42.656;23.232;2023-09-12T06:10:43;17.60;;;4.50;;
61344;SDS011;47216;42.656;23.232;2023-09-12T06:13:09;8.27;;;3.90;;
61344;SDS011;47216;42.656;23.232;2023-09-12T06:15:36;8.33;;;3.67;;
61344;SDS011;47216;42.656;23.232;2023-09-12T06:18:03;8.17;;;3.70;;
61344;SDS011;47216;42.656;23.232;2023-09-12T06:20:32;9.50;;;3.30;;
61344;SDS011;47216;42.656;23.232;2023-09-12T06:22:58;8.63;;;3.10;;
61344;SDS011;47216;42.656;23.232;2023-09-12T06:25:25;6.93;;;3.43;;
61344;SDS011;47216;42.656;23.232;2023-09-12T06:27:54;8.07;;;3.20;;
61344;SDS011;47216;42.656;23.232;2023-09-12T06:30:20;8.97;;;3.33;;
61344;SDS011;47216;42.656;23.232;2023-09-12T06:32:47;10.53;;;3.43;;
61344;SDS011;47216;42.656;23.232;2023-09-12T06:35:14;10.87;;;3.43;;
61344;SDS011;47216;42.656;23.232;2023-09-12T06:37:42;6.00;;;3.40;;
61344;SDS011;47216;42.656;23.232;2023-09-12T06:40:10;20.37;;;4.20;;
61344;SDS011;47216;42.656;23.232;2023-09-12T06:42:37;16.07;;;3.97;;
61344;SDS011;47216;42.656;23.232;2023-09-12T06:45:04;7.00;;;3.73;;
61344;SDS011;47216;42.656;23.232;2023-09-12T06:47:31;6.07;;;4.00;;
61344;SDS011;47216;42.656;23.232;2023-09-12T06:49:58;7.97;;;4.23;;
61344;SDS011;47216;42.656;23.232;2023-09-12T06:52:25;11.10;;;3.60;;
61344;SDS011;47216;42.656;23.232;2023-09-12T06:54:53;6.90;;;3.30;;
61344;SDS011;47216;42.656;23.232;2023-09-12T06:57:20;9.60;;;3.23;;
61344;SDS011;47216;42.656;23.232;2023-09-12T06:59:46;5.83;;;3.17;;
61344;SDS011;47216;42.656;23.232;2023-09-12T07:02:14;7.37;;;3.57;;
61344;SDS011;47216;42.656;23.232;2023-09-12T07:04:43;8.07;;;4.07;;
61344;SDS011;47216;42.656;23.232;2023-09-12T07:07:10;4.67;;;2.87;;
61344;SDS011;47216;42.656;23.232;2023-09-12T07:09:36;8.90;;;3.67;;
61344;SDS011;47216;42.656;23.232;2023-09-12T07:12:05;18.43;;;4.07;;
61344;SDS011;47216;42.656;23.232;2023-09-12T07:14:32;5.47;;;2.97;;
61344;SDS011;47216;42.656;23.232;2023-09-12T07:16:59;22.23;;;3.67;;
61344;SDS011;47216;42.656;23.232;2023-09-12T07:19:26;8.50;;;3.60;;
61344;SDS011;47216;42.656;23.232;2023-09-12T07:21:52;7.53;;;3.17;;
61344;SDS011;47216;42.656;23.232;2023-09-12T07:24:19;7.60;;;3.40;;
61344;SDS011;47216;42.656;23.232;2023-09-12T07:26:46;12.97;;;3.23;;
61344;SDS011;47216;42.656;23.232;2023-09-12T07:29:14;11.17;;;3.20;;
61344;SDS011;47216;42.656;23.232;2023-09-12T07:31:41;5.70;;;3.47;;
61344;SDS011;47216;42.656;23.232;2023-09-12T07:34:07;6.13;;;3.63;;
61344;SDS011;47216;42.656;23.232;2023-09-12T07:36:34;16.67;;;3.30;;
61344;SDS011;47216;42.656;23.232;2023-09-12T07:39:01;8.17;;;4.07;;
61344;SDS011;47216;42.656;23.232;2023-09-12T07:41:29;11.00;;;3.83;;
61344;SDS011;47216;42.656;23.232;2023-09-12T07:43:56;11.47;;;3.77;;
61344;SDS011;47216;42.656;23.232;2023-09-12T07:46:24;8.67;;;3.40;;
61344;SDS011;47216;42.656;23.232;2023-09-12T07:48:50;8.83;;;3.27;;
61344;SDS011;47216;42.656;23.232;2023-09-12T07:51:17;7.23;;;3.43;;
61344;SDS011;47216;42.656;23.232;2023-09-12T07:53:43;13.77;;;3.70;;
61344;SDS011;47216;42.656;23.232;2023-09-12T07:56:10;9.93;;;3.73;;
61344;SDS011;47216;42.656;23.232;2023-09-12T07:58:37;9.57;;;3.30;;
61344;SDS011;47216;42.656;23.232;2023-09-12T08:01:06;7.77;;;3.60;;
61344;SDS011;47216;42.656;23.232;2023-09-12T08:03:36;10.53;;;3.63;;
61344;SDS011;47216;42.656;23.232;2023-09-12T08:06:05;10.17;;;3.30;;
61344;SDS011;47216;42.656;23.232;2023-09-12T08:08:32;4.93;;;3.22;;
61344;SDS011;47216;42.656;23.232;2023-09-12T08:10:58;6.40;;;3.40;;
61344;SDS011;47216;42.656;23.232;2023-09-12T08:13:26;16.23;;;3.43;;
61344;SDS011;47216;42.656;23.232;2023-09-12T08:15:53;10.00;;;3.43;;
61344;SDS011;47216;42.656;23.232;2023-09-12T08:18:21;12.27;;;3.43;;
61344;SDS011;47216;42.656;23.232;2023-09-12T08:20:49;9.33;;;3.10;;
61344;SDS011;47216;42.656;23.232;2023-09-12T08:23:16;8.98;;;3.60;;
61344;SDS011;47216;42.656;23.232;2023-09-12T08:25:43;9.43;;;3.60;;
61344;SDS011;47216;42.656;23.232;2023-09-12T08:28:09;9.40;;;3.25;;
61344;SDS011;47216;42.656;23.232;2023-09-12T08:30:36;14.02;;;3.40;;
61344;SDS011;47216;42.656;23.232;2023-09-12T08:33:03;11.32;;;3.40;;
61344;SDS011;47216;42.656;23.232;2023-09-12T08:35:31;19.23;;;3.53;;
61344;SDS011;47216;42.656;23.232;2023-09-12T08:38:00;6.65;;;3.15;;
61344;SDS011;47216;42.656;23.232;2023-09-12T08:40:27;6.45;;;3.17;;
61344;SDS011;47216;42.656;23.232;2023-09-12T08:42:54;10.10;;;3.40;;
61344;SDS011;47216;42.656;23.232;2023-09-12T08:45:23;10.25;;;3.92;;
61344;SDS011;47216;42.656;23.232;2023-09-12T08:47:52;6.78;;;3.50;;
61344;SDS011;47216;42.656;23.232;2023-09-12T08:50:20;9.70;;;3.47;;
61344;SDS011;47216;42.656;23.232;2023-09-12T08:52:48;5.95;;;2.97;;
61344;SDS011;47216;42.656;23.232;2023-09-12T08:55:16;10.77;;;3.03;;
61344;SDS011;47216;42.656;23.232;2023-09-12T08:57:44;6.10;;;2.70;;
61344;SDS011;47216;42.656;23.232;2023-09-12T09:00:16;11.50;;;2.80;;
61344;SDS011;47216;42.656;23.232;2023-09-12T09:02:43;3.90;;;2.67;;
61344;SDS011;47216;42.656;23.232;2023-09-12T09:05:12;7.13;;;3.22;;
61344;SDS011;47216;42.656;23.232;2023-09-12T09:07:40;5.30;;;2.47;;
61344;SDS011;47216;42.656;23.232;2023-09-12T09:10:10;10.40;;;3.10;;
61344;SDS011;47216;42.656;23.232;2023-09-12T09:12:42;18.10;;;3.33;;
61344;SDS011;47216;42.656;23.232;2023-09-12T09:15:20;7.53;;;3.05;;
61344;SDS011;47216;42.656;23.232;2023-09-12T09:17:47;5.78;;;2.53;;
61344;SDS011;47216;42.656;23.232;2023-09-12T09:20:21;7.13;;;3.05;;
61344;SDS011;47216;42.656;23.232;2023-09-12T09:22:55;7.00;;;2.63;;
61344;SDS011;47216;42.656;23.232;2023-09-12T09:25:23;5.32;;;2.85;;
61344;SDS011;47216;42.656;23.232;2023-09-12T09:27:51;4.72;;;2.40;;
61344;SDS011;47216;42.656;23.232;2023-09-12T09:30:18;4.10;;;2.70;;
61344;SDS011;47216;42.656;23.232;2023-09-12T09:33:04;7.00;;;2.90;;
61344;SDS011;47216;42.656;23.232;2023-09-12T09:35:31;5.95;;;2.47;;
61344;SDS011;47216;42.656;23.232;2023-09-12T09:37:58;11.38;;;2.60;;
61344;SDS011;47216;42.656;23.232;2023-09-12T09:40:25;16.38;;;2.97;;
61344;SDS011;47216;42.656;23.232;2023-09-12T09:42:54;7.05;;;2.63;;
61344;SDS011;47216;42.656;23.232;2023-09-12T09:45:21;10.05;;;3.15;;
61344;SDS011;47216;42.656;23.232;2023-09-12T09:47:49;8.63;;;3.22;;
61344;SDS011;47216;42.656;23.232;2023-09-12T09:50:16;5.32;;;2.88;;
61344;SDS011;47216;42.656;23.232;2023-09-12T09:52:43;11.77;;;3.30;;
61344;SDS011;47216;42.656;23.232;2023-09-12T09:55:13;4.93;;;2.97;;
61344;SDS011;47216;42.656;23.232;2023-09-12T09:57:40;4.43;;;2.45;;
61344;SDS011;47216;42.656;23.232;2023-09-12T10:00:08;4.70;;;3.05;;
61344;SDS011;47216;42.656;23.232;2023-09-12T10:02:40;6.45;;;2.83;;
61344;SDS011;47216;42.656;23.232;2023-09-12T10:05:07;7.80;;;3.00;;
61344;SDS011;47216;42.656;23.232;2023-09-12T10:07:36;11.65;;;2.90;;
61344;SDS011;47216;42.656;23.232;2023-09-12T10:10:04;10.50;;;2.50;;
61344;SDS011;47216;42.656;23.232;2023-09-12T10:12:31;6.03;;;3.42;;
61344;SDS011;47216;42.656;23.232;2023-09-12T10:15:01;3.50;;;2.58;;
61344;SDS011;47216;42.656;23.232;2023-09-12T10:17:34;14.65;;;3.60;;
61344;SDS011;47216;42.656;23.232;2023-09-12T10:20:03;13.68;;;3.40;;
61344;SDS011;47216;42.656;23.232;2023-09-12T10:22:39;7.38;;;3.05;;
61344;SDS011;47216;42.656;23.232;2023-09-12T10:25:09;6.72;;;2.67;;
61344;SDS011;47216;42.656;23.232;2023-09-12T10:27:37;10.90;;;2.85;;
61344;SDS011;47216;42.656;23.232;2023-09-12T10:30:05;4.95;;;2.63;;
61344;SDS011;47216;42.656;23.232;2023-09-12T10:32:35;5.82;;;2.70;;
61344;SDS011;47216;42.656;23.232;2023-09-12T10:35:03;9.48;;;3.38;;
61344;SDS011;47216;42.656;23.232;2023-09-12T10:37:32;8.60;;;3.08;;
61344;SDS011;47216;42.656;23.232;2023-09-12T10:40:03;15.85;;;3.28;;
61344;SDS011;47216;42.656;23.232;2023-09-12T10:42:35;7.45;;;3.10;;
61344;SDS011;47216;42.656;23.232;2023-09-12T10:45:03;7.93;;;3.30;;
61344;SDS011;47216;42.656;23.232;2023-09-12T10:47:33;3.75;;;2.83;;
61344;SDS011;47216;42.656;23.232;2023-09-12T10:50:02;11.13;;;3.55;;
61344;SDS011;47216;42.656;23.232;2023-09-12T10:52:28;5.72;;;3.17;;
61344;SDS011;47216;42.656;23.232;2023-09-12T10:54:55;11.23;;;3.58;;
61344;SDS011;47216;42.656;23.232;2023-09-12T10:57:22;9.23;;;3.40;;
61344;SDS011;47216;42.656;23.232;2023-09-12T11:00:09;4.70;;;3.15;;
61344;SDS011;47216;42.656;23.232;2023-09-12T11:02:39;6.55;;;3.13;;
61344;SDS011;47216;42.656;23.232;2023-09-12T11:05:07;4.60;;;3.00;;
61344;SDS011;47216;42.656;23.232;2023-09-12T11:08:18;12.57;;;3.20;;
61344;SDS011;47216;42.656;23.232;2023-09-12T11:10:44;5.95;;;2.92;;
61344;SDS011;47216;42.656;23.232;2023-09-12T11:13:16;9.73;;;3.20;;
61344;SDS011;47216;42.656;23.232;2023-09-12T11:21:39;11.50;;;3.33;;
61344;SDS011;47216;42.656;23.232;2023-09-12T11:24:06;5.30;;;2.88;;
61344;SDS011;47216;42.656;23.232;2023-09-12T11:26:33;6.22;;;3.05;;
61344;SDS011;47216;42.656;23.232;2023-09-12T11:29:10;11.68;;;3.45;;
61344;SDS011;47216;42.656;23.232;2023-09-12T11:31:37;9.38;;;2.67;;
61344;SDS011;47216;42.656;23.232;2023-09-12T11:34:08;12.07;;;3.13;;
61344;SDS011;47216;42.656;23.232;2023-09-12T11:36:39;5.70;;;2.92;;
61344;SDS011;47216;42.656;23.232;2023-09-12T11:39:21;6.63;;;3.10;;
61344;SDS011;47216;42.656;23.232;2023-09-12T11:41:50;7.35;;;2.70;;
61344;SDS011;47216;42.656;23.232;2023-09-12T11:44:17;5.47;;;3.13;;
61344;SDS011;47216;42.656;23.232;2023-09-12T11:46:46;20.00;;;3.45;;
61344;SDS011;47216;42.656;23.232;2023-09-12T11:49:15;6.93;;;2.90;;
61344;SDS011;47216;42.656;23.232;2023-09-12T11:51:48;9.80;;;2.90;;
61344;SDS011;47216;42.656;23.232;2023-09-12T11:54:15;8.50;;;3.00;;
61344;SDS011;47216;42.656;23.232;2023-09-12T11:56:44;6.30;;;3.28;;
61344;SDS011;47216;42.656;23.232;2023-09-12T11:59:11;7.15;;;3.58;;
61344;SDS011;47216;42.656;23.232;2023-09-12T12:01:38;11.55;;;3.10;;
61344;SDS011;47216;42.656;23.232;2023-09-12T12:04:05;6.95;;;3.38;;
61344;SDS011;47216;42.656;23.232;2023-09-12T12:06:35;6.88;;;3.03;;
61344;SDS011;47216;42.656;23.232;2023-09-12T12:09:04;5.18;;;3.20;;
61344;SDS011;47216;42.656;23.232;2023-09-12T12:11:31;4.63;;;2.60;;
61344;SDS011;47216;42.656;23.232;2023-09-12T12:13:58;8.15;;;3.30;;
61344;SDS011;47216;42.656;23.232;2023-09-12T12:16:35;4.00;;;2.70;;
61344;SDS011;47216;42.656;23.232;2023-09-12T12:19:02;25.42;;;3.80;;
61344;SDS011;47216;42.656;23.232;2023-09-12T12:21:29;10.45;;;3.40;;
61344;SDS011;47216;42.656;23.232;2023-09-12T12:23:59;6.47;;;3.08;;
61344;SDS011;47216;42.656;23.232;2023-09-12T12:26:28;8.68;;;3.15;;
61344;SDS011;47216;42.656;23.232;2023-09-12T12:28:54;9.95;;;3.20;;
61344;SDS011;47216;42.656;23.232;2023-09-12T12:31:21;13.13;;;2.80;;
61344;SDS011;47216;42.656;23.232;2023-09-12T12:33:50;8.40;;;2.92;;
61344;SDS011;47216;42.656;23.232;2023-09-12T12:36:18;6.97;;;3.38;;
61344;SDS011;47216;42.656;23.232;2023-09-12T12:38:46;6.25;;;3.03;;
61344;SDS011;47216;42.656;23.232;2023-09-12T12:41:14;6.32;;;3.15;;
61344;SDS011;47216;42.656;23.232;2023-09-12T12:43:43;6.68;;;2.80;;
61344;SDS011;47216;42.656;23.232;2023-09-12T12:46:10;3.78;;;2.60;;
61344;SDS011;47216;42.656;23.232;2023-09-12T12:48:38;8.35;;;2.88;;
61344;SDS011;47216;42.656;23.232;2023-09-12T12:51:13;11.63;;;2.83;;
61344;SDS011;47216;42.656;23.232;2023-09-12T12:53:43;6.13;;;3.17;;
61344;SDS011;47216;42.656;23.232;2023-09-12T12:56:14;7.05;;;3.00;;
61344;SDS011;47216;42.656;23.232;2023-09-12T12:58:49;30.38;;;3.80;;
61344;SDS011;47216;42.656;23.232;2023-09-12T13:01:17;13.73;;;3.22;;
61344;SDS011;47216;42.656;23.232;2023-09-12T13:03:44;8.60;;;2.88;;
61344;SDS011;47216;42.656;23.232;2023-09-12T13:06:11;13.88;;;3.78;;
61344;SDS011;47216;42.656;23.232;2023-09-12T13:08:42;11.30;;;2.95;;
61344;SDS011;47216;42.656;23.232;2023-09-12T13:11:11;7.15;;;3.08;;
61344;SDS011;47216;42.656;23.232;2023-09-12T13:13:39;8.70;;;3.25;;
61344;SDS011;47216;42.656;23.232;2023-09-12T13:16:08;12.45;;;3.30;;
61344;SDS011;47216;42.656;23.232;2023-09-12T13:18:36;4.80;;;3.00;;
61344;SDS011;47216;42.656;23.232;2023-09-12T13:21:03;8.05;;;3.85;;
61344;SDS011;47216;42.656;23.232;2023-09-12T13:23:30;6.35;;;3.40;;
61344;SDS011;47216;42.656;23.232;2023-09-12T13:25:59;5.88;;;2.75;;
61344;SDS011;47216;42.656;23.232;2023-09-12T13:28:26;5.93;;;3.20;;
61344;SDS011;47216;42.656;23.232;2023-09-12T13:30:53;7.85;;;2.42;;
61344;SDS011;47216;42.656;23.232;2023-09-12T13:33:21;9.52;;;3.45;;
61344;SDS011;47216;42.656;23.232;2023-09-12T13:35:48;10.82;;;2.92;;
61344;SDS011;47216;42.656;23.232;2023-09-12T13:38:15;7.63;;;3.50;;
61344;SDS011;47216;42.656;23.232;2023-09-12T13:40:44;9.57;;;4.20;;
61344;SDS011;47216;42.656;23.232;2023-09-12T13:43:12;13.48;;;5.85;;
61344;SDS011;47216;42.656;23.232;2023-09-12T13:45:39;15.60;;;5.80;;
61344;SDS011;47216;42.656;23.232;2023-09-12T13:48:06;10.65;;;6.50;;
61344;SDS011;47216;42.656;23.232;2023-09-12T13:50:34;11.05;;;5.00;;
61344;SDS011;47216;42.656;23.232;2023-09-12T13:53:01;15.30;;;4.18;;
61344;SDS011;47216;42.656;23.232;2023-09-12T13:55:32;13.68;;;3.08;;
61344;SDS011;47216;42.656;23.232;2023-09-12T13:58:01;8.30;;;2.88;;
61344;SDS011;47216;42.656;23.232;2023-09-12T14:00:29;15.18;;;3.10;;
61344;SDS011;47216;42.656;23.232;2023-09-12T14:02:55;8.60;;;3.45;;
61344;SDS011;47216;42.656;23.232;2023-09-12T14:05:22;6.82;;;2.85;;
61344;SDS011;47216;42.656;23.232;2023-09-12T14:07:51;6.53;;;2.78;;
61344;SDS011;47216;42.656;23.232;2023-09-12T14:10:18;6.35;;;2.75;;
61344;SDS011;47216;42.656;23.232;2023-09-12T14:12:44;10.73;;;2.80;;
61344;SDS011;47216;42.656;23.232;2023-09-12T14:15:11;13.50;;;2.97;;
61344;SDS011;47216;42.656;23.232;2023-09-12T14:17:39;8.43;;;3.10;;
61344;SDS011;47216;42.656;23.232;2023-09-12T14:20:06;13.68;;;3.85;;
61344;SDS011;47216;42.656;23.232;2023-09-12T14:22:34;21.90;;;3.42;;
61344;SDS011;47216;42.656;23.232;2023-09-12T14:25:02;12.70;;;3.42;;
61344;SDS011;47216;42.656;23.232;2023-09-12T14:27:30;15.02;;;3.35;;
61344;SDS011;47216;42.656;23.232;2023-09-12T14:29:57;9.80;;;3.15;;
61344;SDS011;47216;42.656;23.232;2023-09-12T14:32:24;17.98;;;3.35;;
61344;SDS011;47216;42.656;23.232;2023-09-12T14:34:51;13.57;;;3.33;;
61344;SDS011;47216;42.656;23.232;2023-09-12T14:37:18;38.60;;;4.90;;
61344;SDS011;47216;42.656;23.232;2023-09-12T14:39:45;17.90;;;3.08;;
61344;SDS011;47216;42.656;23.232;2023-09-12T14:42:13;9.82;;;3.13;;
61344;SDS011;47216;42.656;23.232;2023-09-12T14:44:40;17.58;;;3.22;;